createdAt,value
2022-11-24T00:00:53.989Z,6.66
2022-11-24T00:03:21.660Z,7.00
2022-11-24T00:05:49.091Z,6.94
2022-11-24T00:08:16.423Z,6.66
2022-11-24T00:10:44.048Z,6.68
2022-11-24T00:13:11.406Z,6.73
2022-11-24T00:15:38.758Z,6.82
2022-11-24T00:18:06.379Z,7.30
2022-11-24T00:20:33.716Z,7.11
2022-11-24T00:23:01.590Z,6.71
2022-11-24T00:25:29.181Z,7.04
2022-11-24T00:27:56.528Z,6.60
2022-11-24T00:30:23.935Z,6.51
2022-11-24T00:32:52.804Z,6.39
2022-11-24T00:35:20.150Z,6.90
2022-11-24T00:37:47.523Z,6.94
2022-11-24T00:40:15.145Z,7.36
2022-11-24T00:42:42.481Z,7.25
2022-11-24T00:45:13.756Z,7.18
2022-11-24T00:47:41.889Z,7.50
2022-11-24T00:50:09.586Z,7.61
2022-11-24T00:52:36.942Z,7.56
2022-11-24T00:55:04.854Z,7.55
2022-11-24T00:57:35.014Z,6.92
2022-11-24T01:00:02.399Z,6.64
2022-11-24T01:02:30.054Z,7.12
2022-11-24T01:04:57.443Z,7.27
2022-11-24T01:07:24.796Z,7.62
2022-11-24T01:09:52.448Z,7.53
2022-11-24T01:12:19.814Z,6.87
2022-11-24T01:14:47.168Z,7.09
2022-11-24T01:17:14.731Z,7.22
2022-11-24T01:19:42.089Z,7.54
2022-11-24T01:22:09.426Z,7.10
2022-11-24T01:24:37.022Z,7.05
2022-11-24T01:27:04.371Z,7.12
2022-11-24T01:29:31.737Z,6.97
2022-11-24T01:31:59.452Z,6.82
2022-11-24T01:34:26.759Z,6.85
2022-11-24T01:36:54.154Z,6.08
2022-11-24T01:39:21.803Z,6.23
2022-11-24T01:41:49.154Z,6.29
2022-11-24T01:44:23.576Z,6.27
2022-11-24T01:47:29.851Z,6.71
2022-11-24T01:49:57.808Z,6.72
2022-11-24T01:52:31.467Z,7.14
2022-11-24T01:55:02.099Z,6.83
2022-11-24T01:57:32.213Z,6.31
2022-11-24T02:00:07.787Z,6.23
2022-11-24T02:02:41.635Z,6.51
2022-11-24T02:05:21.867Z,6.28
2022-11-24T02:07:49.271Z,6.36
2022-11-24T02:10:16.916Z,6.38
2022-11-24T02:12:46.906Z,6.07
2022-11-24T02:15:17.800Z,6.13
2022-11-24T02:17:45.481Z,6.74
2022-11-24T02:20:13.013Z,6.29
2022-11-24T02:22:49.268Z,5.92
2022-11-24T02:25:36.115Z,6.23
2022-11-24T02:28:07.068Z,6.33
2022-11-24T02:30:35.341Z,6.20
2022-11-24T02:33:02.987Z,6.18
2022-11-24T02:35:30.338Z,6.28
2022-11-24T02:37:57.933Z,5.69
2022-11-24T02:40:26.901Z,5.54
2022-11-24T02:42:56.375Z,5.48
2022-11-24T02:45:24.495Z,6.02
2022-11-24T02:47:51.862Z,5.79
2022-11-24T02:50:19.211Z,5.53
2022-11-24T02:52:46.847Z,5.60
2022-11-24T02:55:14.262Z,5.54
2022-11-24T02:57:41.635Z,5.77
2022-11-24T03:00:09.859Z,5.66
2022-11-24T03:02:37.251Z,5.73
2022-11-24T03:05:04.950Z,5.86
2022-11-24T03:07:32.637Z,5.59
2022-11-24T03:10:00.310Z,5.51
2022-11-24T03:12:27.637Z,5.96
2022-11-24T03:14:55.246Z,5.66
2022-11-24T03:17:22.595Z,6.03
2022-11-24T03:19:49.925Z,6.21
2022-11-24T03:22:17.529Z,5.30
2022-11-24T03:24:44.944Z,5.20
2022-11-24T03:27:12.274Z,5.19
2022-11-24T03:29:39.869Z,5.49
2022-11-24T03:32:07.274Z,5.39
2022-11-24T03:34:34.827Z,5.86
2022-11-24T03:37:02.710Z,5.63
2022-11-24T03:39:30.038Z,5.60
2022-11-24T03:41:57.374Z,5.71
2022-11-24T03:44:24.993Z,5.68
2022-11-24T03:46:52.342Z,5.56
2022-11-24T03:49:19.707Z,6.01
2022-11-24T03:51:47.332Z,5.90
2022-11-24T03:54:14.678Z,5.50
2022-11-24T03:56:42.058Z,5.41
2022-11-24T03:59:09.669Z,5.81
2022-11-24T04:01:37.076Z,5.60
2022-11-24T04:04:04.873Z,5.66
2022-11-24T04:06:32.276Z,5.30
2022-11-24T04:09:00.460Z,5.08
2022-11-24T04:11:46.734Z,5.27
2022-11-24T04:14:14.118Z,4.74
2022-11-24T04:16:41.829Z,4.88
2022-11-24T04:19:09.199Z,5.07
2022-11-24T04:21:36.673Z,5.41
2022-11-24T04:24:04.311Z,5.26
2022-11-24T04:26:31.691Z,5.06
2022-11-24T04:28:59.071Z,4.84
2022-11-24T04:31:26.747Z,5.16
2022-11-24T04:33:54.163Z,4.90
2022-11-24T04:36:21.509Z,5.14
2022-11-24T04:39:25.775Z,4.63
2022-11-24T04:41:36.465Z,4.77
2022-11-24T04:44:04.109Z,4.67
2022-11-24T04:46:31.488Z,5.12
2022-11-24T04:48:58.874Z,4.90
2022-11-24T04:51:26.484Z,4.65
2022-11-24T04:53:53.835Z,4.92
2022-11-24T04:56:21.223Z,4.67
2022-11-24T04:58:49.411Z,4.58
2022-11-24T05:01:16.856Z,4.50
2022-11-24T05:03:44.380Z,4.66
2022-11-24T05:06:12.064Z,4.35
2022-11-24T05:08:39.352Z,4.62
2022-11-24T05:11:06.754Z,4.94
2022-11-24T05:13:34.327Z,4.56
2022-11-24T05:16:01.779Z,4.78
2022-11-24T05:18:29.280Z,4.73
2022-11-24T05:20:57.664Z,4.44
2022-11-24T05:23:25.055Z,4.79
2022-11-24T05:25:52.854Z,5.04
2022-11-24T05:28:20.447Z,5.00
2022-11-24T05:30:47.742Z,4.88
2022-11-24T05:33:19.297Z,4.92
2022-11-24T05:35:47.669Z,5.17
2022-11-24T05:38:15.849Z,5.23
2022-11-24T05:40:43.479Z,5.37
2022-11-24T05:43:14.695Z,5.11
2022-11-24T05:45:42.424Z,5.39
2022-11-24T05:48:11.960Z,5.26
2022-11-24T05:50:39.639Z,4.88
2022-11-24T05:53:08.627Z,5.16
2022-11-24T05:55:36.194Z,5.02
2022-11-24T05:58:04.948Z,4.84
2022-11-24T06:00:32.511Z,5.08
2022-11-24T06:03:00.382Z,4.94
2022-11-24T06:05:28.429Z,4.75
2022-11-24T06:07:55.865Z,4.50
2022-11-24T06:10:26.347Z,4.74
2022-11-24T06:12:54.337Z,5.10
2022-11-24T06:15:21.728Z,4.71
2022-11-24T06:17:54.163Z,4.58
2022-11-24T06:20:22.165Z,4.95
2022-11-24T06:22:49.786Z,5.10
2022-11-24T06:25:17.268Z,5.13
2022-11-24T06:27:44.772Z,5.15
2022-11-24T06:30:13.029Z,4.83
2022-11-24T06:32:49.129Z,4.84
2022-11-24T06:35:17.545Z,5.15
2022-11-24T06:37:45.894Z,4.96
2022-11-24T06:40:13.234Z,5.15
2022-11-24T06:42:40.806Z,5.21
2022-11-24T06:45:09.628Z,5.45
2022-11-24T06:47:37.316Z,5.19
2022-11-24T06:50:05.292Z,5.05
2022-11-24T06:52:32.682Z,5.23
2022-11-24T06:55:00.021Z,5.08
2022-11-24T06:57:29.610Z,4.84
2022-11-24T06:59:58.431Z,5.48
2022-11-24T07:02:26.130Z,5.33
2022-11-24T07:04:55.948Z,5.44
2022-11-24T07:07:23.651Z,5.75
2022-11-24T07:09:51.078Z,5.45
2022-11-24T07:12:18.689Z,5.55
2022-11-24T07:14:46.040Z,5.25
2022-11-24T07:17:13.411Z,5.47
2022-11-24T07:19:40.999Z,5.69
2022-11-24T07:22:08.325Z,5.33
2022-11-24T07:24:35.914Z,5.41
2022-11-24T07:27:03.767Z,5.55
2022-11-24T07:29:31.063Z,5.73
2022-11-24T07:32:03.675Z,5.79
2022-11-24T07:34:33.219Z,5.59
2022-11-24T07:37:00.781Z,5.92
2022-11-24T07:39:28.111Z,5.76
2022-11-24T07:41:55.796Z,6.05
2022-11-24T07:44:23.597Z,5.76
2022-11-24T07:46:51.358Z,5.87
2022-11-24T07:49:19.363Z,5.74
2022-11-24T07:51:55.599Z,6.19
2022-11-24T07:54:52.343Z,6.21
2022-11-24T07:57:34.603Z,6.18
2022-11-24T08:00:06.067Z,6.51
2022-11-24T08:02:33.743Z,6.13
2022-11-24T08:05:01.129Z,6.51
2022-11-24T08:07:28.964Z,6.56
2022-11-24T08:09:56.575Z,6.43
2022-11-24T08:12:24.021Z,5.81
2022-11-24T08:14:51.439Z,6.27
2022-11-24T08:17:19.082Z,6.21
2022-11-24T08:19:46.428Z,6.66
2022-11-24T08:22:13.898Z,6.29
2022-11-24T08:24:46.471Z,6.83
2022-11-24T08:27:16.597Z,6.79
2022-11-24T08:29:44.236Z,6.17
2022-11-24T08:32:15.046Z,6.26
2022-11-24T08:34:45.090Z,6.16
2022-11-24T08:37:12.455Z,6.32
2022-11-24T08:39:39.768Z,6.39
2022-11-24T08:42:07.333Z,6.34
2022-11-24T08:44:34.795Z,6.62
2022-11-24T08:47:02.240Z,6.83
2022-11-24T08:49:29.813Z,6.79
2022-11-24T08:51:57.671Z,6.99
2022-11-24T08:54:25.634Z,6.69
2022-11-24T08:56:53.221Z,6.68
2022-11-24T08:59:20.700Z,6.79
2022-11-24T09:01:49.194Z,6.69
2022-11-24T09:04:17.024Z,6.29
2022-11-24T09:06:44.516Z,6.10
2022-11-24T09:09:11.894Z,6.69
2022-11-24T09:11:39.492Z,6.37
2022-11-24T09:14:06.851Z,6.44
2022-11-24T09:16:34.308Z,6.09
2022-11-24T09:19:03.732Z,6.33
2022-11-24T09:21:31.979Z,6.57
2022-11-24T09:23:59.289Z,6.54
2022-11-24T09:26:28.564Z,6.46
2022-11-24T09:28:56.280Z,6.91
2022-11-24T09:31:25.399Z,6.48
2022-11-24T09:33:53.172Z,6.31
2022-11-24T09:36:20.614Z,6.70
2022-11-24T09:38:48.059Z,6.17
2022-11-24T09:41:18.259Z,6.23
2022-11-24T09:43:51.455Z,6.26
2022-11-24T09:46:31.324Z,5.92
2022-11-24T09:48:58.720Z,6.16
2022-11-24T09:51:29.285Z,6.26
2022-11-24T09:53:57.964Z,6.03
2022-11-24T09:56:27.599Z,6.07
2022-11-24T09:58:59.428Z,6.00
2022-11-24T10:01:31.583Z,6.09
2022-11-24T10:04:05.663Z,6.40
2022-11-24T10:06:40.783Z,6.22
2022-11-24T10:09:17.261Z,6.48
2022-11-24T10:11:58.521Z,7.15
2022-11-24T10:14:35.073Z,6.63
2022-11-24T10:17:09.961Z,6.99
2022-11-24T10:20:03.987Z,6.30
2022-11-24T10:22:35.451Z,6.63
2022-11-24T10:25:25.059Z,6.58
2022-11-24T10:27:57.420Z,6.56
2022-11-24T10:30:25.046Z,6.39
2022-11-24T10:33:08.011Z,6.88
2022-11-24T10:35:45.411Z,7.09
2022-11-24T10:38:28.203Z,6.86
2022-11-24T10:41:10.335Z,7.39
2022-11-24T10:43:37.680Z,7.14
2022-11-24T10:46:11.503Z,7.45
2022-11-24T10:48:45.890Z,7.48
2022-11-24T10:51:44.379Z,7.08
2022-11-24T10:54:20.139Z,7.06
2022-11-24T10:56:48.147Z,7.39
2022-11-24T10:59:29.810Z,7.71
2022-11-24T11:01:57.857Z,7.67
2022-11-24T11:04:26.275Z,7.45
2022-11-24T11:07:16.613Z,7.79
2022-11-24T11:09:44.939Z,7.15
2022-11-24T11:12:42.560Z,8.03
2022-11-24T11:15:23.176Z,8.10
2022-11-24T11:17:52.292Z,7.99
2022-11-24T11:20:23.975Z,7.93
2022-11-24T11:22:51.295Z,7.49
2022-11-24T11:25:19.636Z,7.68
2022-11-24T11:27:48.317Z,7.93
2022-11-24T11:36:12.371Z,8.31
2022-11-24T11:38:40.141Z,8.45
2022-11-24T11:41:10.876Z,9.12
2022-11-24T11:43:40.806Z,8.33
2022-11-24T11:46:16.321Z,7.90
2022-11-24T11:48:46.423Z,8.49
2022-11-24T11:51:35.779Z,8.26
2022-11-24T11:54:24.966Z,8.30
2022-11-24T11:57:02.449Z,8.19
2022-11-24T11:59:43.237Z,7.94
2022-11-24T12:02:53.079Z,8.02
2022-11-24T12:05:41.651Z,8.32
2022-11-24T12:08:56.039Z,8.35
2022-11-24T12:11:35.981Z,8.34
2022-11-24T12:14:21.439Z,8.36
2022-11-24T12:16:58.748Z,8.36
2022-11-24T12:19:38.181Z,8.13
2022-11-24T12:22:21.235Z,8.04
2022-11-24T12:24:54.320Z,8.08
2022-11-24T12:27:39.638Z,7.81
2022-11-24T12:30:16.850Z,7.67
2022-11-24T12:33:05.662Z,8.20
2022-11-24T12:35:36.528Z,8.09
2022-11-24T12:38:35.793Z,7.71
2022-11-24T12:41:41.707Z,7.93
2022-11-24T12:44:36.035Z,7.98
2022-11-24T12:47:14.495Z,8.06
2022-11-24T12:49:51.477Z,8.26
2022-11-24T12:52:23.723Z,7.95
2022-11-24T12:54:51.253Z,8.19
2022-11-24T12:57:29.596Z,7.90
2022-11-24T13:00:21.846Z,8.06
2022-11-24T13:03:20.402Z,7.89
2022-11-24T13:05:58.746Z,7.50
2022-11-24T13:08:27.060Z,7.40
2022-11-24T13:10:56.549Z,7.71
2022-11-24T13:13:56.789Z,7.44
2022-11-24T13:16:53.565Z,7.77
2022-11-24T13:19:17.159Z,7.97
2022-11-24T13:21:49.979Z,8.01
2022-11-24T13:24:17.860Z,7.76
2022-11-24T13:27:12.739Z,8.22
2022-11-24T13:29:51.750Z,8.43
2022-11-24T13:32:19.186Z,8.14
2022-11-24T13:34:49.823Z,9.18
2022-11-24T13:37:31.577Z,8.96
2022-11-24T13:40:12.423Z,8.92
2022-11-24T13:42:54.707Z,8.13
2022-11-24T13:45:45.127Z,8.22
2022-11-24T13:48:22.766Z,8.54
2022-11-24T13:50:50.605Z,8.70
2022-11-24T13:53:20.990Z,8.91
2022-11-24T13:55:59.522Z,8.35
2022-11-24T13:58:40.761Z,7.86
2022-11-24T14:01:20.428Z,8.05
2022-11-24T14:04:28.648Z,8.15
2022-11-24T14:06:52.200Z,8.50
2022-11-24T14:09:34.110Z,8.69
2022-11-24T14:12:06.292Z,8.80
2022-11-24T14:14:34.151Z,8.97
2022-11-24T14:17:16.793Z,8.04
2022-11-24T14:19:46.265Z,8.45
2022-11-24T14:22:31.468Z,8.64
2022-11-24T14:25:00.267Z,8.20
2022-11-24T14:27:32.749Z,8.74
2022-11-24T14:30:10.392Z,7.97
2022-11-24T14:32:40.619Z,8.08
2022-11-24T14:35:28.060Z,7.99
2022-11-24T14:37:55.703Z,7.83
2022-11-24T14:40:40.109Z,8.44
2022-11-24T14:43:21.716Z,8.28
2022-11-24T14:46:03.779Z,8.53
2022-11-24T14:48:33.461Z,8.25
2022-11-24T14:51:23.230Z,8.57
2022-11-24T14:53:52.355Z,8.15
2022-11-24T14:56:30.400Z,7.87
2022-11-24T14:58:57.953Z,7.43
2022-11-24T15:01:28.563Z,7.62
2022-11-24T15:04:38.786Z,8.22
2022-11-24T15:07:27.517Z,7.83
2022-11-24T15:09:58.022Z,7.40
2022-11-24T15:12:30.626Z,7.53
2022-11-24T15:15:20.304Z,7.52
2022-11-24T15:17:52.682Z,7.29
2022-11-24T15:20:38.193Z,7.02
2022-11-24T15:23:20.439Z,6.85
2022-11-24T15:25:47.844Z,6.94
2022-11-24T15:28:15.481Z,7.16
2022-11-24T15:30:42.784Z,7.08
2022-11-24T15:33:13.569Z,7.18
2022-11-24T15:35:41.175Z,6.76
2022-11-24T15:38:08.627Z,6.82
2022-11-24T15:40:39.598Z,6.74
2022-11-24T15:43:31.859Z,6.75
2022-11-24T15:45:59.906Z,6.42
2022-11-24T15:48:27.886Z,6.63
2022-11-24T15:50:55.235Z,6.85
2022-11-24T15:53:36.633Z,6.78
2022-11-24T15:56:06.000Z,6.36
2022-11-24T15:58:33.368Z,6.61
2022-11-24T16:01:00.739Z,6.57
2022-11-24T16:06:23.668Z,6.31
2022-11-24T16:08:55.532Z,6.93
2022-11-24T16:11:23.049Z,6.63
2022-11-24T16:13:53.459Z,6.73
2022-11-24T16:16:22.637Z,6.46
2022-11-24T16:18:50.115Z,6.59
2022-11-24T16:21:17.457Z,6.51
2022-11-24T16:23:45.652Z,6.27
2022-11-24T16:26:13.028Z,5.88
2022-11-24T16:28:40.773Z,6.40
2022-11-24T16:31:08.450Z,6.09
2022-11-24T16:33:38.639Z,6.36
2022-11-24T16:36:06.416Z,5.70
2022-11-24T16:38:35.534Z,6.05
2022-11-24T16:41:02.904Z,6.10
2022-11-24T16:43:30.266Z,5.78
2022-11-24T16:46:27.345Z,5.92
2022-11-24T16:48:55.618Z,5.91
2022-11-24T16:51:23.324Z,5.84
2022-11-24T16:54:00.580Z,5.74
2022-11-24T16:56:28.544Z,5.60
2022-11-24T16:58:55.949Z,5.38
2022-11-24T17:01:23.658Z,5.60
2022-11-24T17:03:51.347Z,5.63
2022-11-24T17:06:18.738Z,6.01
2022-11-24T17:08:46.376Z,5.75
2022-11-24T17:11:18.240Z,5.93
2022-11-24T17:13:45.927Z,5.49
2022-11-24T17:16:18.057Z,5.37
2022-11-24T17:18:45.527Z,5.23
2022-11-24T17:21:17.893Z,6.20
2022-11-24T17:23:45.527Z,5.88
2022-11-24T17:26:16.845Z,5.65
2022-11-24T17:28:44.195Z,5.61
2022-11-24T17:31:32.152Z,5.91
2022-11-24T17:34:00.031Z,6.47
2022-11-24T17:36:31.221Z,5.78
2022-11-24T17:39:05.277Z,5.54
2022-11-24T17:41:33.040Z,5.51
2022-11-24T17:44:00.367Z,5.16
2022-11-24T17:46:28.430Z,5.22
2022-11-24T17:48:56.159Z,5.46
2022-11-24T17:51:24.414Z,4.98
2022-11-24T17:53:52.659Z,5.00
2022-11-24T17:56:23.407Z,5.25
2022-11-24T17:58:54.431Z,5.60
2022-11-24T18:01:22.212Z,5.42
2022-11-24T18:03:53.424Z,5.41
2022-11-24T18:06:24.058Z,5.48
2022-11-24T18:08:51.805Z,5.68
2022-11-24T18:11:24.632Z,5.76
2022-11-24T18:14:00.789Z,6.17
2022-11-24T18:16:30.423Z,5.86
2022-11-24T18:19:14.640Z,6.32
2022-11-24T18:21:43.704Z,5.54
2022-11-24T18:24:11.809Z,5.71
2022-11-24T18:26:39.806Z,5.60
2022-11-24T18:29:07.875Z,5.77
2022-11-24T18:31:36.114Z,6.39
2022-11-24T18:34:05.016Z,6.54
2022-11-24T18:36:32.465Z,5.94
2022-11-24T18:39:04.069Z,6.13
2022-11-24T18:41:31.893Z,6.60
2022-11-24T18:44:02.394Z,6.55
2022-11-24T18:46:29.899Z,6.40
2022-11-24T18:48:57.232Z,6.47
2022-11-24T18:51:25.231Z,6.58
2022-11-24T18:53:58.159Z,6.85
2022-11-24T18:56:26.111Z,6.26
2022-11-24T18:58:54.017Z,5.87
2022-11-24T19:01:25.844Z,6.05
2022-11-24T19:03:54.916Z,6.36
2022-11-24T19:06:33.005Z,6.38
2022-11-24T19:09:05.397Z,6.59
2022-11-24T19:11:37.116Z,6.72
2022-11-24T19:14:05.570Z,6.73
2022-11-24T19:16:33.151Z,6.33
2022-11-24T19:19:01.710Z,6.24
2022-11-24T19:21:33.655Z,6.35
2022-11-24T19:24:04.874Z,6.40
2022-11-24T19:26:35.089Z,6.31
2022-11-24T19:29:03.554Z,5.98
2022-11-24T19:31:31.065Z,6.45
2022-11-24T19:33:59.770Z,6.23
2022-11-24T19:36:27.275Z,6.37
2022-11-24T19:38:55.656Z,6.51
2022-11-24T19:41:28.602Z,6.71
2022-11-24T19:43:56.658Z,5.26
2022-11-24T19:46:27.121Z,6.11
2022-11-24T19:48:56.923Z,5.93
2022-11-24T19:51:26.672Z,6.18
2022-11-24T19:53:54.139Z,5.74
2022-11-24T19:56:22.957Z,6.03
2022-11-24T19:58:50.948Z,6.13
2022-11-24T20:01:19.177Z,6.63
2022-11-24T20:03:49.473Z,6.62
2022-11-24T20:06:16.845Z,6.72
2022-11-24T20:08:44.392Z,6.97
2022-11-24T20:11:16.005Z,6.38
2022-11-24T20:13:44.471Z,6.61
2022-11-24T20:16:16.307Z,6.49
2022-11-24T20:18:44.939Z,6.86
2022-11-24T20:21:17.171Z,6.82
2022-11-24T20:23:45.296Z,6.96
2022-11-24T20:26:14.983Z,7.08
2022-11-24T20:28:42.518Z,7.00
2022-11-24T20:31:14.277Z,6.78
2022-11-24T20:33:42.019Z,7.03
2022-11-24T20:36:10.901Z,6.83
2022-11-24T20:38:38.504Z,6.99
2022-11-24T20:41:13.376Z,7.29
2022-11-24T20:43:40.818Z,7.27
2022-11-24T20:46:10.095Z,6.97
2022-11-24T20:48:37.540Z,7.24
2022-11-24T20:51:12.620Z,7.22
2022-11-24T20:53:40.287Z,7.36
2022-11-24T20:56:24.189Z,7.28
2022-11-24T20:58:51.970Z,7.03
2022-11-24T21:01:25.829Z,7.03
2022-11-24T21:03:54.844Z,7.11
2022-11-24T21:06:22.406Z,7.08
2022-11-24T21:08:50.521Z,7.29
2022-11-24T21:11:18.280Z,5.91
2022-11-24T21:13:46.074Z,6.32
2022-11-24T21:16:18.289Z,6.45
2022-11-24T21:18:46.919Z,6.77
2022-11-24T21:21:14.401Z,7.07
2022-11-24T21:23:41.739Z,7.14
2022-11-24T21:26:13.308Z,6.93
2022-11-24T21:28:42.843Z,7.20
2022-11-24T21:31:15.162Z,7.22
2022-11-24T21:33:46.725Z,6.91
2022-11-24T21:36:15.470Z,6.76
2022-11-24T21:38:42.913Z,6.92
2022-11-24T21:41:11.068Z,7.18
2022-11-24T21:43:38.703Z,7.22
2022-11-24T21:46:07.516Z,7.26
2022-11-24T21:48:35.786Z,7.18
2022-11-24T21:51:05.596Z,7.07
2022-11-24T21:53:34.543Z,7.12
2022-11-24T21:56:03.167Z,7.09
2022-11-24T21:58:30.938Z,7.01
2022-11-24T22:01:05.633Z,7.25
2022-11-24T22:03:33.274Z,6.35
2022-11-24T22:06:00.668Z,6.74
2022-11-24T22:08:28.754Z,6.76
2022-11-24T22:11:11.029Z,6.45
2022-11-24T22:13:38.348Z,6.54
2022-11-24T22:16:07.741Z,6.79
2022-11-24T22:18:36.759Z,6.58
2022-11-24T22:21:04.755Z,6.84
2022-11-24T22:23:32.679Z,6.25
2022-11-24T22:26:07.833Z,6.52
2022-11-24T22:28:35.695Z,6.73
2022-11-24T22:31:04.676Z,6.75
2022-11-24T22:33:32.200Z,6.62
2022-11-24T22:35:59.963Z,6.84
2022-11-24T22:38:27.568Z,6.83
2022-11-24T22:40:55.045Z,6.75
2022-11-24T22:43:23.183Z,5.99
2022-11-24T22:45:50.670Z,6.45
2022-11-24T22:48:18.039Z,6.73
2022-11-24T22:50:45.640Z,6.36
2022-11-24T22:53:12.926Z,6.04
2022-11-24T22:55:40.254Z,6.22
2022-11-24T22:58:07.844Z,5.79
2022-11-24T23:00:35.174Z,5.77
2022-11-24T23:03:02.550Z,6.24
2022-11-24T23:05:32.280Z,6.43
2022-11-24T23:07:59.611Z,6.45
2022-11-24T23:10:26.931Z,6.67
2022-11-24T23:12:55.296Z,6.56
2022-11-24T23:15:22.641Z,6.56
2022-11-24T23:17:49.953Z,6.62
2022-11-24T23:20:17.651Z,6.55
2022-11-24T23:22:45.056Z,6.56
2022-11-24T23:25:12.340Z,6.58
2022-11-24T23:27:39.950Z,6.08
2022-11-24T23:30:07.865Z,6.48
2022-11-24T23:32:35.200Z,5.33
2022-11-24T23:35:02.800Z,6.07
2022-11-24T23:37:52.224Z,6.37
2022-11-24T23:40:17.731Z,5.77
2022-11-24T23:42:48.357Z,5.08
2022-11-24T23:45:15.761Z,5.74
2022-11-24T23:47:43.515Z,6.09
2022-11-24T23:50:10.947Z,6.28
2022-11-24T23:52:38.296Z,6.28
2022-11-24T23:55:06.135Z,6.57
2022-11-24T23:57:33.473Z,6.06
